createdAt,value
2022-12-31T00:01:25.242Z,5.26
2022-12-31T00:03:00.617Z,5.26
2022-12-31T00:04:32.937Z,5.28
2022-12-31T00:06:19.737Z,5.36
2022-12-31T00:07:54.860Z,5.31
2022-12-31T00:09:26.878Z,5.33
2022-12-31T00:10:58.979Z,5.33
2022-12-31T00:12:31.009Z,5.33
2022-12-31T00:14:03.690Z,5.34
2022-12-31T00:15:35.823Z,5.32
2022-12-31T00:17:07.895Z,5.33
2022-12-31T00:18:40.230Z,5.33
2022-12-31T00:20:12.199Z,5.29
2022-12-31T00:21:44.321Z,5.27
2022-12-31T00:23:16.311Z,5.27
2022-12-31T00:24:48.359Z,5.25
2022-12-31T00:26:22.526Z,5.25
2022-12-31T00:27:56.047Z,5.22
2022-12-31T00:29:27.839Z,5.28
2022-12-31T00:31:15.273Z,5.26
2022-12-31T00:32:47.287Z,5.22
2022-12-31T00:34:19.255Z,5.20
2022-12-31T00:35:51.301Z,5.18
2022-12-31T00:37:23.375Z,5.17
2022-12-31T00:38:57.122Z,5.21
2022-12-31T00:40:29.851Z,5.20
2022-12-31T00:42:01.950Z,5.20
2022-12-31T00:43:34.803Z,5.18
2022-12-31T00:45:07.411Z,5.18
2022-12-31T00:48:10.346Z,5.12
2022-12-31T00:49:42.380Z,5.12
2022-12-31T00:51:16.754Z,5.14
2022-12-31T00:52:48.843Z,5.07
2022-12-31T00:54:20.866Z,5.06
2022-12-31T00:55:53.631Z,5.04
2022-12-31T00:57:25.867Z,4.98
2022-12-31T00:58:58.685Z,4.95
2022-12-31T01:00:30.679Z,4.91
2022-12-31T01:02:02.768Z,4.86
2022-12-31T01:03:34.932Z,4.81
2022-12-31T01:05:08.556Z,4.83
2022-12-31T01:06:43.309Z,4.85
2022-12-31T01:08:15.357Z,4.72
2022-12-31T01:09:47.370Z,4.61
2022-12-31T01:11:20.033Z,4.58
2022-12-31T01:12:51.997Z,4.53
2022-12-31T01:14:24.078Z,4.50
2022-12-31T01:15:56.185Z,4.48
2022-12-31T01:17:28.684Z,4.47
2022-12-31T01:19:02.773Z,4.47
2022-12-31T01:20:43.391Z,4.49
2022-12-31T01:22:15.551Z,4.43
2022-12-31T01:23:47.840Z,4.41
2022-12-31T01:25:19.834Z,4.39
2022-12-31T01:26:52.122Z,4.33
2022-12-31T01:28:24.148Z,4.32
2022-12-31T01:29:56.325Z,4.28
2022-12-31T01:31:28.491Z,4.21
2022-12-31T01:33:00.578Z,4.14
2022-12-31T01:34:32.725Z,4.09
2022-12-31T01:36:09.820Z,4.08
2022-12-31T01:37:41.773Z,4.01
2022-12-31T01:39:13.812Z,3.98
2022-12-31T01:40:45.891Z,3.95
2022-12-31T01:42:17.932Z,3.91
2022-12-31T01:43:51.221Z,3.91
2022-12-31T01:45:23.874Z,3.82
2022-12-31T01:47:01.870Z,3.83
2022-12-31T01:48:33.893Z,3.75
2022-12-31T01:50:13.340Z,3.76
2022-12-31T01:51:48.949Z,3.75
2022-12-31T01:53:21.510Z,3.71
2022-12-31T01:55:00.003Z,3.72
2022-12-31T01:56:31.985Z,3.62
2022-12-31T01:58:14.332Z,3.59
2022-12-31T01:59:46.413Z,3.52
2022-12-31T02:01:31.578Z,3.49
2022-12-31T02:03:06.236Z,3.45
2022-12-31T02:04:38.317Z,3.39
2022-12-31T02:06:31.885Z,3.39
2022-12-31T02:08:04.348Z,3.34
2022-12-31T02:09:41.432Z,3.35
2022-12-31T02:11:24.256Z,3.32
2022-12-31T02:12:56.304Z,3.29
2022-12-31T02:14:54.268Z,3.32
2022-12-31T02:16:49.275Z,3.31
2022-12-31T02:18:30.399Z,3.24
2022-12-31T02:20:13.389Z,3.21
2022-12-31T02:22:16.162Z,3.15
2022-12-31T02:23:51.100Z,3.04
2022-12-31T02:25:29.865Z,2.91
2022-12-31T02:27:13.537Z,2.97
2022-12-31T02:29:13.289Z,2.92
2022-12-31T02:30:49.080Z,2.80
2022-12-31T02:32:29.041Z,2.79
2022-12-31T02:34:19.758Z,2.70
2022-12-31T02:35:57.292Z,2.63
2022-12-31T02:37:31.131Z,2.60
2022-12-31T02:39:05.021Z,2.57
2022-12-31T02:40:37.619Z,2.54
2022-12-31T02:42:10.860Z,2.52
2022-12-31T02:43:48.957Z,2.56
2022-12-31T02:45:27.475Z,2.56
2022-12-31T02:47:08.495Z,2.59
2022-12-31T02:49:12.423Z,2.60
2022-12-31T02:50:58.746Z,2.59
2022-12-31T02:52:58.024Z,2.57
2022-12-31T02:54:56.545Z,2.54
2022-12-31T02:56:35.782Z,2.50
2022-12-31T02:58:21.309Z,2.54
2022-12-31T03:00:25.283Z,2.54
2022-12-31T03:02:16.131Z,2.54
2022-12-31T03:03:48.552Z,2.44
2022-12-31T03:05:23.875Z,2.42
2022-12-31T03:06:56.009Z,2.43
2022-12-31T03:08:27.986Z,2.42
2022-12-31T03:10:01.672Z,2.43
2022-12-31T03:13:05.402Z,2.32
2022-12-31T03:14:37.377Z,2.28
2022-12-31T03:16:09.472Z,2.24
2022-12-31T03:17:41.480Z,2.19
2022-12-31T03:19:32.190Z,2.20
2022-12-31T03:21:22.757Z,2.14
2022-12-31T03:22:54.846Z,2.08
2022-12-31T03:24:45.420Z,2.03
2022-12-31T03:26:17.430Z,2.05
2022-12-31T03:27:49.864Z,2.06
2022-12-31T03:29:21.841Z,2.04
2022-12-31T03:30:56.955Z,2.08
2022-12-31T03:32:28.945Z,2.06
2022-12-31T03:34:00.917Z,2.06
2022-12-31T03:35:34.825Z,2.06
2022-12-31T03:37:06.814Z,2.05
2022-12-31T03:38:39.315Z,2.06
2022-12-31T03:40:12.797Z,2.09
2022-12-31T03:41:44.884Z,2.07
2022-12-31T03:43:17.341Z,2.10
2022-12-31T03:44:49.295Z,2.07
2022-12-31T03:46:21.327Z,2.06
2022-12-31T03:47:53.516Z,2.08
2022-12-31T03:49:25.522Z,2.05
2022-12-31T03:50:57.549Z,2.05
2022-12-31T03:52:29.545Z,2.03
2022-12-31T03:54:01.775Z,2.04
2022-12-31T03:55:33.853Z,2.03
2022-12-31T03:57:05.932Z,2.01
2022-12-31T03:58:37.934Z,1.96
2022-12-31T04:00:13.083Z,1.97
2022-12-31T04:01:45.140Z,1.93
2022-12-31T04:03:17.320Z,1.94
2022-12-31T04:04:49.517Z,1.93
2022-12-31T04:06:21.464Z,1.86
2022-12-31T04:07:53.595Z,1.85
2022-12-31T04:09:25.699Z,1.82
2022-12-31T04:10:57.753Z,1.81
2022-12-31T04:12:29.704Z,1.81
2022-12-31T04:14:01.725Z,1.87
2022-12-31T04:15:33.721Z,1.84
2022-12-31T04:17:05.764Z,1.83
2022-12-31T04:18:37.696Z,1.84
2022-12-31T04:20:10.276Z,1.84
2022-12-31T04:21:42.377Z,1.84
2022-12-31T04:23:14.565Z,1.85
2022-12-31T04:24:46.678Z,1.82
2022-12-31T04:26:18.880Z,1.81
2022-12-31T04:27:50.957Z,1.78
2022-12-31T04:29:23.088Z,1.78
2022-12-31T04:30:55.115Z,1.76
2022-12-31T04:32:27.138Z,1.75
2022-12-31T04:33:59.086Z,1.71
2022-12-31T04:35:31.115Z,1.69
2022-12-31T04:37:03.889Z,1.67
2022-12-31T04:38:35.960Z,1.63
2022-12-31T04:41:40.809Z,1.59
2022-12-31T04:43:12.910Z,1.61
2022-12-31T04:44:45.059Z,1.64
2022-12-31T04:46:19.385Z,1.66
2022-12-31T04:47:51.445Z,1.66
2022-12-31T04:49:23.459Z,1.65
2022-12-31T04:50:55.488Z,1.61
2022-12-31T04:52:27.456Z,1.55
2022-12-31T04:53:59.659Z,1.51
2022-12-31T04:55:31.918Z,1.50
2022-12-31T04:57:04.130Z,1.48
2022-12-31T04:58:37.262Z,1.48
2022-12-31T05:00:14.010Z,1.55
2022-12-31T05:01:46.073Z,1.55
2022-12-31T05:03:19.321Z,1.57
2022-12-31T05:04:51.424Z,1.50
2022-12-31T05:06:24.114Z,1.49
2022-12-31T05:07:56.111Z,1.52
2022-12-31T05:09:28.598Z,1.52
2022-12-31T05:11:02.847Z,1.53
2022-12-31T05:12:34.830Z,1.52
2022-12-31T05:15:47.128Z,1.57
2022-12-31T05:17:21.062Z,1.53
2022-12-31T05:18:53.089Z,1.55
2022-12-31T05:20:25.037Z,1.53
2022-12-31T05:22:15.301Z,1.47
2022-12-31T05:23:47.699Z,1.44
2022-12-31T05:25:19.691Z,1.40
2022-12-31T05:26:51.685Z,1.40
2022-12-31T05:28:23.828Z,1.44
2022-12-31T05:29:55.846Z,1.45
2022-12-31T05:31:27.925Z,1.48
2022-12-31T05:32:59.944Z,1.48
2022-12-31T05:34:31.971Z,1.48
2022-12-31T05:36:04.502Z,1.51
2022-12-31T05:37:36.661Z,1.48
2022-12-31T05:39:08.653Z,1.45
2022-12-31T05:40:40.717Z,1.42
2022-12-31T05:42:12.877Z,1.41
2022-12-31T05:43:44.848Z,1.38
2022-12-31T05:45:18.697Z,1.35
2022-12-31T05:46:50.875Z,1.32
2022-12-31T05:48:22.991Z,1.26
2022-12-31T05:49:55.092Z,1.24
2022-12-31T05:51:27.198Z,1.23
2022-12-31T05:52:59.259Z,1.21
2022-12-31T05:54:31.516Z,1.22
2022-12-31T05:56:03.579Z,1.24
2022-12-31T05:57:35.582Z,1.21
2022-12-31T05:59:07.624Z,1.21
2022-12-31T06:00:39.862Z,1.24
2022-12-31T06:02:11.877Z,1.23
2022-12-31T06:03:45.125Z,1.27
2022-12-31T06:05:25.933Z,1.25
2022-12-31T06:06:58.561Z,1.24
2022-12-31T06:08:30.618Z,1.27
2022-12-31T06:10:02.655Z,1.30
2022-12-31T06:11:34.883Z,1.31
2022-12-31T06:13:07.349Z,1.28
2022-12-31T06:14:45.309Z,1.25
2022-12-31T06:16:17.801Z,1.21
2022-12-31T06:19:28.661Z,1.13
2022-12-31T06:21:00.833Z,1.13
2022-12-31T06:22:32.872Z,1.17
2022-12-31T06:24:05.262Z,1.16
2022-12-31T06:25:40.160Z,1.16
2022-12-31T06:27:12.198Z,1.19
2022-12-31T06:28:44.289Z,1.24
2022-12-31T06:30:16.458Z,1.30
2022-12-31T06:31:48.473Z,1.33
2022-12-31T06:33:20.462Z,1.39
2022-12-31T06:34:52.527Z,1.46
2022-12-31T06:36:24.617Z,1.49
2022-12-31T06:37:56.577Z,1.51
2022-12-31T06:39:28.962Z,1.56
2022-12-31T06:41:04.999Z,1.58
2022-12-31T06:42:37.074Z,1.58
2022-12-31T06:44:09.119Z,1.58
2022-12-31T06:45:41.132Z,1.61
2022-12-31T06:47:13.159Z,1.64
2022-12-31T06:48:46.009Z,1.69
2022-12-31T06:50:18.119Z,1.73
2022-12-31T06:51:50.287Z,1.78
2022-12-31T06:53:22.512Z,1.86
2022-12-31T06:54:54.840Z,1.91
2022-12-31T06:56:34.686Z,1.99
2022-12-31T06:58:09.677Z,2.04
2022-12-31T06:59:41.991Z,2.09
2022-12-31T07:01:41.704Z,2.22
2022-12-31T07:03:28.128Z,2.31
2022-12-31T07:05:06.819Z,2.38
2022-12-31T07:06:48.498Z,2.43
2022-12-31T07:08:26.481Z,2.54
2022-12-31T07:10:29.995Z,2.63
2022-12-31T07:12:36.938Z,2.73
2022-12-31T07:14:36.548Z,2.80
2022-12-31T07:16:32.848Z,2.91
2022-12-31T07:18:18.009Z,2.97
2022-12-31T07:20:11.560Z,3.03
2022-12-31T07:21:44.292Z,3.08
2022-12-31T07:23:16.592Z,3.15
2022-12-31T07:24:48.970Z,3.20
2022-12-31T07:26:56.912Z,3.36
2022-12-31T07:28:42.063Z,3.45
2022-12-31T07:30:16.969Z,3.51
2022-12-31T07:32:26.276Z,3.64
2022-12-31T07:34:08.912Z,3.73
2022-12-31T07:36:14.509Z,3.83
2022-12-31T07:37:46.461Z,3.88
2022-12-31T07:39:36.001Z,4.01
2022-12-31T07:41:39.998Z,4.11
2022-12-31T07:43:54.187Z,4.18
2022-12-31T07:45:35.720Z,4.26
2022-12-31T07:47:25.391Z,4.31
2022-12-31T07:48:58.119Z,4.36
2022-12-31T07:50:30.687Z,4.44
2022-12-31T07:52:05.910Z,4.54
2022-12-31T07:53:38.186Z,4.62
2022-12-31T07:55:11.291Z,4.72
2022-12-31T07:56:43.762Z,4.83
2022-12-31T07:58:25.049Z,5.00
2022-12-31T08:00:05.884Z,5.12
2022-12-31T08:02:00.463Z,5.26
2022-12-31T08:03:38.515Z,5.39
2022-12-31T08:05:34.834Z,5.50
2022-12-31T08:07:20.095Z,5.62
2022-12-31T08:09:16.361Z,5.75
2022-12-31T08:11:10.307Z,5.85
2022-12-31T08:12:42.757Z,5.93
2022-12-31T08:14:15.777Z,6.02
2022-12-31T08:15:48.184Z,6.11
2022-12-31T08:17:20.655Z,6.22
2022-12-31T08:18:53.006Z,6.30
2022-12-31T08:20:26.462Z,6.40
2022-12-31T08:22:17.061Z,6.53
2022-12-31T08:24:04.699Z,6.64
2022-12-31T08:25:39.598Z,6.66
2022-12-31T08:27:30.577Z,6.83
2022-12-31T08:29:18.508Z,6.93
2022-12-31T08:31:42.024Z,7.04
2022-12-31T08:33:20.174Z,7.14
2022-12-31T08:35:27.280Z,7.24
2022-12-31T08:37:07.394Z,7.35
2022-12-31T08:38:50.604Z,7.40
2022-12-31T08:40:48.439Z,7.58
2022-12-31T08:42:28.003Z,7.66
2022-12-31T08:44:24.316Z,7.75
2022-12-31T08:45:57.284Z,7.82
2022-12-31T08:47:44.639Z,7.95
2022-12-31T08:49:17.110Z,8.03
2022-12-31T08:50:49.452Z,8.10
2022-12-31T08:52:26.534Z,8.25
2022-12-31T08:53:58.773Z,8.30
2022-12-31T08:55:31.185Z,8.38
2022-12-31T08:57:27.903Z,8.54
2022-12-31T08:59:29.596Z,8.64
2022-12-31T09:01:02.110Z,8.73
2022-12-31T09:02:54.335Z,8.84
2022-12-31T09:04:49.842Z,8.97
2022-12-31T09:06:38.861Z,9.03
2022-12-31T09:08:44.595Z,9.25
2022-12-31T09:10:28.435Z,9.32
2022-12-31T09:12:14.660Z,9.44
2022-12-31T09:14:01.152Z,9.52
2022-12-31T09:15:41.882Z,9.53
2022-12-31T09:17:35.365Z,9.69
2022-12-31T09:19:10.569Z,9.72
2022-12-31T09:20:44.393Z,9.76
2022-12-31T09:22:16.972Z,9.83
2022-12-31T09:23:49.245Z,9.90
2022-12-31T09:25:22.465Z,10.00
2022-12-31T09:27:07.019Z,10.09
2022-12-31T09:29:05.308Z,10.18
2022-12-31T09:30:51.989Z,10.30
2022-12-31T09:32:39.165Z,10.39
2022-12-31T09:34:31.040Z,10.49
2022-12-31T09:36:11.074Z,10.55
2022-12-31T09:37:43.033Z,10.58
2022-12-31T09:39:27.197Z,10.72
2022-12-31T09:41:18.234Z,10.82
2022-12-31T09:43:14.805Z,10.93
2022-12-31T09:45:20.709Z,11.07
2022-12-31T09:47:17.016Z,11.17
2022-12-31T09:48:57.879Z,11.19
2022-12-31T09:50:52.988Z,11.28
2022-12-31T09:52:56.836Z,11.36
2022-12-31T09:54:46.945Z,11.48
2022-12-31T09:56:27.668Z,11.57
2022-12-31T09:58:34.692Z,11.65
2022-12-31T10:00:21.931Z,11.71
2022-12-31T10:02:03.090Z,11.70
2022-12-31T10:03:35.241Z,11.78
2022-12-31T10:05:33.618Z,11.94
2022-12-31T10:07:17.666Z,12.02
2022-12-31T10:09:02.551Z,12.18
2022-12-31T10:10:53.150Z,12.27
2022-12-31T10:12:37.289Z,12.32
2022-12-31T10:14:36.380Z,12.37
2022-12-31T10:18:05.882Z,12.47
2022-12-31T10:19:40.740Z,12.43
2022-12-31T10:21:44.616Z,12.57
2022-12-31T10:23:35.153Z,12.68
2022-12-31T10:25:46.514Z,12.77
2022-12-31T10:27:34.096Z,12.92
2022-12-31T10:29:39.380Z,13.07
2022-12-31T10:31:14.850Z,13.05
2022-12-31T10:33:03.875Z,13.16
2022-12-31T10:34:44.286Z,13.14
2022-12-31T10:36:21.287Z,13.19
2022-12-31T10:38:17.724Z,13.24
2022-12-31T10:40:06.676Z,13.27
2022-12-31T10:42:15.766Z,13.30
2022-12-31T10:43:59.689Z,13.32
2022-12-31T10:45:34.598Z,13.37
2022-12-31T10:47:42.019Z,13.40
2022-12-31T10:49:17.052Z,13.43
2022-12-31T10:51:19.423Z,13.42
2022-12-31T10:53:11.147Z,13.44
2022-12-31T10:55:01.604Z,13.45
2022-12-31T10:56:56.811Z,13.47
2022-12-31T10:58:33.303Z,13.44
2022-12-31T11:00:13.259Z,13.54
2022-12-31T11:02:08.759Z,13.63
2022-12-31T11:04:02.802Z,13.77
2022-12-31T11:06:08.448Z,13.82
2022-12-31T11:07:46.740Z,13.87
2022-12-31T11:09:34.801Z,13.94
2022-12-31T11:11:50.881Z,14.01
2022-12-31T11:13:58.683Z,14.05
2022-12-31T11:15:54.138Z,14.07
2022-12-31T11:17:38.065Z,14.14
2022-12-31T11:19:38.956Z,14.23
2022-12-31T11:21:36.294Z,14.32
2022-12-31T11:23:31.097Z,14.37
2022-12-31T11:25:12.749Z,14.43
2022-12-31T11:27:04.093Z,14.53
2022-12-31T11:28:51.255Z,14.60
2022-12-31T11:30:28.168Z,14.82
2022-12-31T11:32:03.050Z,14.90
2022-12-31T11:33:50.535Z,15.01
2022-12-31T11:35:34.082Z,15.08
2022-12-31T11:37:30.400Z,15.19
2022-12-31T11:39:13.771Z,15.21
2022-12-31T11:40:57.243Z,15.25
2022-12-31T11:43:06.997Z,15.32
2022-12-31T11:45:00.604Z,15.31
2022-12-31T11:46:44.497Z,15.32
2022-12-31T11:48:30.124Z,15.40
2022-12-31T11:50:28.243Z,15.45
2022-12-31T11:52:04.125Z,15.47
2022-12-31T11:53:44.575Z,15.63
2022-12-31T11:55:25.940Z,15.73
2022-12-31T11:57:30.166Z,15.77
2022-12-31T11:59:07.720Z,15.80
2022-12-31T12:00:46.156Z,15.91
2022-12-31T12:02:36.283Z,16.05
2022-12-31T12:04:10.454Z,16.05
2022-12-31T12:05:42.564Z,16.07
2022-12-31T12:07:15.128Z,16.10
2022-12-31T12:08:47.318Z,16.13
2022-12-31T12:10:51.573Z,16.15
2022-12-31T12:12:23.867Z,16.11
2022-12-31T12:13:55.979Z,16.17
2022-12-31T12:15:31.910Z,16.28
2022-12-31T12:17:08.041Z,16.31
2022-12-31T12:18:46.906Z,16.33
2022-12-31T12:21:51.947Z,16.21
2022-12-31T12:23:25.987Z,16.32
2022-12-31T12:25:11.016Z,16.33
2022-12-31T12:26:44.765Z,16.31
2022-12-31T12:28:24.596Z,16.39
2022-12-31T12:29:56.752Z,16.33
2022-12-31T12:31:28.922Z,16.41
2022-12-31T12:33:05.140Z,16.46
2022-12-31T12:34:43.147Z,16.47
2022-12-31T12:36:20.219Z,16.49
2022-12-31T12:38:03.694Z,16.53
2022-12-31T12:39:35.857Z,16.51
2022-12-31T12:41:13.144Z,16.56
2022-12-31T12:42:53.265Z,16.59
2022-12-31T12:44:25.317Z,16.62
2022-12-31T12:46:05.372Z,16.64
2022-12-31T12:47:37.452Z,16.53
2022-12-31T12:49:23.692Z,16.53
2022-12-31T12:50:55.873Z,16.43
2022-12-31T12:53:04.405Z,16.34
2022-12-31T12:56:25.206Z,16.18
2022-12-31T12:58:22.774Z,16.17
2022-12-31T13:00:07.950Z,16.17
2022-12-31T13:01:56.700Z,16.11
2022-12-31T13:03:59.968Z,15.92
2022-12-31T13:05:33.042Z,15.87
2022-12-31T13:07:37.216Z,15.89
2022-12-31T13:09:19.553Z,15.92
2022-12-31T13:11:11.921Z,15.87
2022-12-31T13:13:23.728Z,15.94
2022-12-31T13:15:19.225Z,16.02
2022-12-31T13:17:21.209Z,15.99
2022-12-31T13:19:00.291Z,15.89
2022-12-31T13:20:38.559Z,15.65
2022-12-31T13:22:30.918Z,15.72
2022-12-31T13:24:28.634Z,15.70
2022-12-31T13:26:13.613Z,15.65
2022-12-31T13:27:47.268Z,15.52
2022-12-31T13:29:22.786Z,15.49
2022-12-31T13:31:06.562Z,15.56
2022-12-31T13:32:45.772Z,15.58
2022-12-31T13:34:21.850Z,15.61
2022-12-31T13:36:02.679Z,15.59
2022-12-31T13:37:38.742Z,15.60
2022-12-31T13:39:19.420Z,15.57
2022-12-31T13:41:15.628Z,15.54
2022-12-31T13:42:55.553Z,15.52
2022-12-31T13:45:10.116Z,15.51
2022-12-31T13:47:00.553Z,15.42
2022-12-31T13:48:41.197Z,15.38
2022-12-31T13:50:27.981Z,15.38
2022-12-31T13:52:27.623Z,15.49
2022-12-31T13:54:05.669Z,15.48
2022-12-31T13:55:41.331Z,15.39
2022-12-31T13:57:50.245Z,15.37
2022-12-31T13:59:23.362Z,15.36
2022-12-31T14:01:19.423Z,15.45
2022-12-31T14:03:00.064Z,15.45
2022-12-31T14:04:36.101Z,15.39
2022-12-31T14:06:23.115Z,15.35
2022-12-31T14:07:57.671Z,15.37
2022-12-31T14:09:31.540Z,15.38
2022-12-31T14:11:25.908Z,15.38
2022-12-31T14:13:05.966Z,15.38
2022-12-31T14:15:01.467Z,15.33
2022-12-31T14:16:46.254Z,15.29
2022-12-31T14:18:28.139Z,15.25
2022-12-31T14:20:18.601Z,15.18
2022-12-31T14:22:00.973Z,15.06
2022-12-31T14:23:59.926Z,14.96
2022-12-31T14:25:38.816Z,14.85
2022-12-31T14:27:23.525Z,14.73
2022-12-31T14:29:15.087Z,14.58
2022-12-31T14:30:51.006Z,14.49
2022-12-31T14:32:32.511Z,14.37
2022-12-31T14:34:23.815Z,14.24
2022-12-31T14:36:20.501Z,14.14
2022-12-31T14:38:12.913Z,13.95
2022-12-31T14:40:22.296Z,13.82
2022-12-31T14:42:03.468Z,13.64
2022-12-31T14:43:41.121Z,13.45
2022-12-31T14:45:51.422Z,13.30
2022-12-31T14:47:52.181Z,13.13
2022-12-31T14:49:48.786Z,13.03
2022-12-31T14:51:28.420Z,12.89
2022-12-31T14:53:00.448Z,12.72
2022-12-31T14:54:37.761Z,12.66
2022-12-31T14:56:45.623Z,12.52
2022-12-31T14:58:33.080Z,12.41
2022-12-31T15:00:37.038Z,12.30
2022-12-31T15:04:00.050Z,11.94
2022-12-31T15:05:37.194Z,11.78
2022-12-31T15:07:41.795Z,11.64
2022-12-31T15:09:24.067Z,11.52
2022-12-31T15:11:32.163Z,11.42
2022-12-31T15:13:07.839Z,11.31
2022-12-31T15:14:39.795Z,11.22
2022-12-31T15:16:36.655Z,11.16
2022-12-31T15:18:23.715Z,11.06
2022-12-31T15:20:18.191Z,10.95
2022-12-31T15:22:20.838Z,10.86
2022-12-31T15:23:53.142Z,10.72
2022-12-31T15:25:36.781Z,10.65
2022-12-31T15:27:30.779Z,10.54
2022-12-31T15:29:08.778Z,10.42
2022-12-31T15:30:45.827Z,10.33
2022-12-31T15:32:32.286Z,10.23
2022-12-31T15:34:21.884Z,10.09
2022-12-31T15:35:56.424Z,10.00
2022-12-31T15:37:32.728Z,9.93
2022-12-31T15:39:10.571Z,9.85
2022-12-31T15:40:51.090Z,9.75
2022-12-31T15:42:51.566Z,9.67
2022-12-31T15:44:26.499Z,9.55
2022-12-31T15:45:58.906Z,9.49
2022-12-31T15:47:35.633Z,9.42
2022-12-31T15:49:15.632Z,9.35
2022-12-31T15:50:50.982Z,9.23
2022-12-31T15:52:32.837Z,9.18
2022-12-31T15:54:05.640Z,9.06
2022-12-31T15:55:43.579Z,9.01
2022-12-31T15:57:21.435Z,8.94
2022-12-31T15:58:57.829Z,8.89
2022-12-31T16:00:56.800Z,8.84
2022-12-31T16:02:29.384Z,8.72
2022-12-31T16:04:08.165Z,8.66
2022-12-31T16:05:40.213Z,8.58
2022-12-31T16:07:12.843Z,8.51
2022-12-31T16:08:47.071Z,8.43
2022-12-31T16:10:24.513Z,8.37
2022-12-31T16:11:57.790Z,8.30
2022-12-31T16:13:30.118Z,8.23
2022-12-31T16:15:02.772Z,8.17
2022-12-31T16:16:34.856Z,8.10
2022-12-31T16:18:10.983Z,8.06
2022-12-31T16:19:46.541Z,8.00
2022-12-31T16:21:33.203Z,7.93
2022-12-31T16:23:19.561Z,7.86
2022-12-31T16:25:29.719Z,7.78
2022-12-31T16:26:53.918Z,7.71
2022-12-31T16:28:31.375Z,7.66
2022-12-31T16:30:08.886Z,7.61
2022-12-31T16:31:43.490Z,7.55
2022-12-31T16:33:15.853Z,7.49
2022-12-31T16:34:47.917Z,7.41
2022-12-31T16:36:22.310Z,7.36
2022-12-31T16:38:20.767Z,7.37
2022-12-31T16:39:58.909Z,7.31
2022-12-31T16:41:42.448Z,7.27
2022-12-31T16:43:27.201Z,7.19
2022-12-31T16:45:19.127Z,7.06
2022-12-31T16:46:51.150Z,6.98
2022-12-31T16:48:23.377Z,6.95
2022-12-31T16:50:08.478Z,6.95
2022-12-31T16:51:40.732Z,6.86
2022-12-31T16:53:17.746Z,6.85
2022-12-31T16:54:51.051Z,6.84
2022-12-31T16:56:43.377Z,6.83
2022-12-31T16:58:22.611Z,6.81
2022-12-31T16:59:57.268Z,6.76
2022-12-31T17:01:33.278Z,6.71
2022-12-31T17:03:17.676Z,6.68
2022-12-31T17:04:55.670Z,6.60
2022-12-31T17:06:32.389Z,6.53
2022-12-31T17:08:24.176Z,6.47
2022-12-31T17:10:42.627Z,6.36
2022-12-31T17:12:17.025Z,6.21
2022-12-31T17:13:56.385Z,6.16
2022-12-31T17:15:40.919Z,6.13
2022-12-31T17:17:21.481Z,6.04
2022-12-31T17:18:53.537Z,6.02
2022-12-31T17:20:28.650Z,6.03
2022-12-31T17:22:01.399Z,6.00
2022-12-31T17:23:35.639Z,6.01
2022-12-31T17:25:31.308Z,5.99
2022-12-31T17:27:09.204Z,5.95
2022-12-31T17:28:46.966Z,5.91
2022-12-31T17:30:28.139Z,5.90
2022-12-31T17:32:01.571Z,5.81
2022-12-31T17:33:33.648Z,5.78
2022-12-31T17:35:28.743Z,5.76
2022-12-31T17:37:17.910Z,5.72
2022-12-31T17:38:50.562Z,5.62
2022-12-31T17:40:51.641Z,5.62
2022-12-31T17:42:34.700Z,5.56
2022-12-31T17:44:18.926Z,5.45
2022-12-31T17:45:52.196Z,5.38
2022-12-31T17:47:24.232Z,5.32
2022-12-31T17:49:01.357Z,5.34
2022-12-31T17:50:33.460Z,5.31
2022-12-31T17:52:10.743Z,5.34
2022-12-31T17:53:42.815Z,5.27
2022-12-31T17:55:15.445Z,5.25
2022-12-31T17:56:47.792Z,5.23
2022-12-31T17:58:38.911Z,5.27
2022-12-31T18:00:21.027Z,5.25
2022-12-31T18:01:53.298Z,5.21
2022-12-31T18:03:26.712Z,5.22
2022-12-31T18:04:58.747Z,5.14
2022-12-31T18:06:31.001Z,5.01
2022-12-31T18:08:03.003Z,4.96
2022-12-31T18:09:35.031Z,4.85
2022-12-31T18:11:07.996Z,4.78
2022-12-31T18:12:40.383Z,4.70
2022-12-31T18:14:16.285Z,4.65
2022-12-31T18:15:48.653Z,4.55
2022-12-31T18:17:20.703Z,4.48
2022-12-31T18:18:52.771Z,4.45
2022-12-31T18:20:25.421Z,4.45
2022-12-31T18:22:00.937Z,4.43
2022-12-31T18:23:39.227Z,4.45
2022-12-31T18:25:14.796Z,4.45
2022-12-31T18:26:46.860Z,4.42
2022-12-31T18:28:18.906Z,4.41
2022-12-31T18:29:51.075Z,4.38
2022-12-31T18:31:29.559Z,4.43
2022-12-31T18:33:01.642Z,4.35
2022-12-31T18:34:33.764Z,4.39
2022-12-31T18:36:09.286Z,4.40
2022-12-31T18:37:42.179Z,4.39
2022-12-31T18:39:14.284Z,4.37
2022-12-31T18:40:55.948Z,4.43
2022-12-31T18:42:28.886Z,4.38
2022-12-31T18:44:01.548Z,4.39
2022-12-31T18:45:33.587Z,4.39
2022-12-31T18:47:14.464Z,4.43
2022-12-31T18:48:46.602Z,4.38
2022-12-31T18:50:18.652Z,4.37
2022-12-31T18:51:54.332Z,4.35
2022-12-31T18:53:26.383Z,4.34
2022-12-31T18:54:58.737Z,4.34
2022-12-31T18:56:31.758Z,4.32
2022-12-31T18:58:03.912Z,4.29
2022-12-31T18:59:36.022Z,4.23
2022-12-31T19:01:26.373Z,4.23
2022-12-31T19:02:58.560Z,4.13
2022-12-31T19:04:30.662Z,4.13
2022-12-31T19:06:02.713Z,4.12
2022-12-31T19:07:34.775Z,4.15
2022-12-31T19:09:23.719Z,4.16
2022-12-31T19:10:59.245Z,4.18
2022-12-31T19:12:31.299Z,4.18
2022-12-31T19:14:03.692Z,4.17
2022-12-31T19:15:43.432Z,4.23
2022-12-31T19:17:15.494Z,4.19
2022-12-31T19:18:47.978Z,4.18
2022-12-31T19:20:20.130Z,4.13
2022-12-31T19:21:52.190Z,4.11
2022-12-31T19:23:24.437Z,4.10
2022-12-31T19:24:56.461Z,4.06
2022-12-31T19:26:28.709Z,4.05
2022-12-31T19:28:01.659Z,4.03
2022-12-31T19:29:33.634Z,4.01
2022-12-31T19:31:08.294Z,4.02
2022-12-31T19:32:40.279Z,3.98
2022-12-31T19:34:12.562Z,4.02
2022-12-31T19:35:45.545Z,4.05
2022-12-31T19:37:17.539Z,4.02
2022-12-31T19:38:49.467Z,4.03
2022-12-31T19:40:30.371Z,4.04
2022-12-31T19:42:02.483Z,3.97
2022-12-31T19:43:34.475Z,3.94
2022-12-31T19:45:07.027Z,3.94
2022-12-31T19:46:39.075Z,3.93
2022-12-31T19:48:13.981Z,3.91
2022-12-31T19:49:46.023Z,3.81
2022-12-31T19:51:19.863Z,3.82
2022-12-31T19:52:53.948Z,3.81
2022-12-31T19:54:26.069Z,3.78
2022-12-31T19:55:58.240Z,3.79
2022-12-31T19:57:30.246Z,3.78
2022-12-31T19:59:06.444Z,3.76
2022-12-31T20:00:39.459Z,3.70
2022-12-31T20:02:11.688Z,3.63
2022-12-31T20:03:43.883Z,3.63
2022-12-31T20:05:16.871Z,3.66
2022-12-31T20:06:49.513Z,3.63
2022-12-31T20:08:23.223Z,3.57
2022-12-31T20:09:55.202Z,3.50
2022-12-31T20:11:27.448Z,3.47
2022-12-31T20:12:59.543Z,3.43
2022-12-31T20:14:31.715Z,3.43
2022-12-31T20:16:04.039Z,3.42
2022-12-31T20:17:37.429Z,3.40
2022-12-31T20:19:10.642Z,3.39
2022-12-31T20:20:50.348Z,3.35
2022-12-31T20:22:25.662Z,3.27
2022-12-31T20:23:57.840Z,3.29
2022-12-31T20:25:30.004Z,3.30
2022-12-31T20:27:02.158Z,3.29
2022-12-31T20:28:34.253Z,3.30
2022-12-31T20:30:07.137Z,3.32
2022-12-31T20:31:40.155Z,3.31
2022-12-31T20:33:17.307Z,3.33
2022-12-31T20:34:51.246Z,3.33
2022-12-31T20:36:23.903Z,3.36
2022-12-31T20:37:55.987Z,3.37
2022-12-31T20:39:28.059Z,3.36
2022-12-31T20:41:13.855Z,3.41
2022-12-31T20:42:46.288Z,3.36
2022-12-31T20:44:18.387Z,3.39
2022-12-31T20:45:50.481Z,3.37
2022-12-31T20:47:22.834Z,3.34
2022-12-31T20:48:57.275Z,3.32
2022-12-31T20:50:29.272Z,3.29
2022-12-31T20:52:01.389Z,3.29
2022-12-31T20:53:33.487Z,3.24
2022-12-31T20:55:06.004Z,3.19
2022-12-31T20:56:40.074Z,3.16
2022-12-31T20:58:12.158Z,3.11
2022-12-31T20:59:44.220Z,3.12
2022-12-31T21:01:17.373Z,3.11
2022-12-31T21:39:56.191Z,2.95
2022-12-31T21:41:46.939Z,2.95
2022-12-31T21:43:19.116Z,2.94
2022-12-31T21:44:51.134Z,2.89
2022-12-31T21:46:23.355Z,2.88
2022-12-31T21:48:17.991Z,2.83
2022-12-31T21:49:50.158Z,2.75
2022-12-31T21:51:23.176Z,2.73
2022-12-31T21:52:55.181Z,2.72
2022-12-31T21:54:45.860Z,2.73
2022-12-31T21:56:21.488Z,2.75
2022-12-31T21:58:25.411Z,2.69
2022-12-31T22:00:39.834Z,2.68
2022-12-31T22:02:17.336Z,2.73
2022-12-31T22:03:49.566Z,2.76
2022-12-31T22:05:25.142Z,2.80
2022-12-31T22:06:57.506Z,2.85
2022-12-31T22:08:30.923Z,2.89
2022-12-31T22:10:03.789Z,2.87
2022-12-31T22:11:35.816Z,2.88
2022-12-31T22:13:11.117Z,2.92
2022-12-31T22:15:15.981Z,2.91
2022-12-31T22:16:35.835Z,2.87
2022-12-31T22:18:07.855Z,2.82
2022-12-31T22:20:01.112Z,2.81
2022-12-31T22:21:32.050Z,2.84
2022-12-31T22:23:04.036Z,2.82
2022-12-31T22:24:36.115Z,2.75
2022-12-31T22:26:10.204Z,2.75
2022-12-31T22:27:45.458Z,2.73
2022-12-31T22:29:30.347Z,2.70
2022-12-31T22:31:02.455Z,2.71
2022-12-31T22:32:34.510Z,2.71
2022-12-31T22:34:06.718Z,2.72
2022-12-31T22:35:38.786Z,2.70
2022-12-31T22:37:35.706Z,2.62
2022-12-31T22:39:02.938Z,2.56
2022-12-31T22:40:36.087Z,2.53
2022-12-31T22:42:08.215Z,2.51
2022-12-31T22:45:13.024Z,2.39
2022-12-31T22:46:46.209Z,2.50